createdAt,value
2022-11-20T00:01:28.527Z,68.50
2022-11-20T00:03:57.210Z,68.70
2022-11-20T00:06:24.579Z,68.60
2022-11-20T00:08:51.917Z,68.70
2022-11-20T00:11:23.721Z,68.60
2022-11-20T00:13:52.935Z,68.60
2022-11-20T00:16:22.440Z,68.70
2022-11-20T00:18:49.713Z,68.80
2022-11-20T00:21:28.645Z,68.80
2022-11-20T00:23:57.249Z,68.80
2022-11-20T00:26:26.905Z,68.70
2022-11-20T00:28:56.853Z,68.80
2022-11-20T00:31:24.280Z,69.00
2022-11-20T00:33:51.281Z,69.10
2022-11-20T00:36:20.133Z,68.90
2022-11-20T00:38:47.346Z,68.80
2022-11-20T00:41:16.201Z,68.40
2022-11-20T00:43:43.557Z,68.80
2022-11-20T00:46:11.769Z,68.80
2022-11-20T00:48:38.595Z,68.90
2022-11-20T00:51:06.119Z,68.90
2022-11-20T00:53:33.078Z,69.00
2022-11-20T00:56:05.248Z,69.00
2022-11-20T00:58:34.913Z,69.00
2022-11-20T01:01:07.261Z,68.30
2022-11-20T01:03:35.793Z,68.50
2022-11-20T01:06:10.157Z,68.70
2022-11-20T01:08:37.384Z,68.40
2022-11-20T01:11:09.556Z,68.70
2022-11-20T01:13:39.612Z,68.70
2022-11-20T01:16:18.582Z,68.60
2022-11-20T01:18:47.799Z,68.50
2022-11-20T01:21:19.460Z,68.60
2022-11-20T01:23:52.395Z,68.70
2022-11-20T01:26:22.473Z,68.70
2022-11-20T01:28:49.637Z,68.90
2022-11-20T01:31:18.189Z,68.90
2022-11-20T01:33:48.160Z,68.60
2022-11-20T01:36:18.148Z,68.30
2022-11-20T01:38:46.109Z,68.00
2022-11-20T01:41:37.067Z,67.80
2022-11-20T01:44:05.347Z,67.80
2022-11-20T01:46:37.883Z,68.30
2022-11-20T01:49:29.652Z,68.60
2022-11-20T01:52:24.236Z,68.60
2022-11-20T01:54:56.717Z,68.90
2022-11-20T01:57:25.819Z,68.70
2022-11-20T02:00:02.253Z,68.80
2022-11-20T02:02:29.904Z,68.80
2022-11-20T02:05:01.861Z,68.80
2022-11-20T02:07:31.292Z,69.00
2022-11-20T02:09:59.022Z,69.00
2022-11-20T02:12:44.711Z,69.00
2022-11-20T02:15:11.574Z,69.30
2022-11-20T02:17:39.268Z,69.20
2022-11-20T02:20:07.052Z,69.10
2022-11-20T02:22:58.664Z,69.20
2022-11-20T02:25:27.278Z,69.20
2022-11-20T02:27:54.237Z,69.10
2022-11-20T02:30:21.062Z,69.20
2022-11-20T02:32:47.882Z,69.00
2022-11-20T02:35:20.701Z,68.80
2022-11-20T02:37:51.183Z,68.70
2022-11-20T02:40:18.324Z,68.80
2022-11-20T02:42:45.599Z,68.80
2022-11-20T02:45:13.044Z,69.00
2022-11-20T02:47:40.031Z,68.80
2022-11-20T02:50:07.624Z,68.90
2022-11-20T02:52:35.798Z,69.00
2022-11-20T02:55:02.658Z,69.00
2022-11-20T02:57:29.488Z,68.90
2022-11-20T02:59:56.896Z,69.00
2022-11-20T03:02:24.371Z,69.00
2022-11-20T03:04:52.744Z,68.70
2022-11-20T03:07:19.931Z,68.60
2022-11-20T03:09:46.742Z,68.60
2022-11-20T03:12:13.746Z,68.70
2022-11-20T03:14:41.361Z,68.50
2022-11-20T03:17:08.170Z,68.60
2022-11-20T03:19:35.360Z,68.50
2022-11-20T03:22:02.584Z,68.60
2022-11-20T03:24:29.880Z,68.50
2022-11-20T03:26:56.676Z,68.30
2022-11-20T03:29:23.680Z,68.10
2022-11-20T03:31:51.194Z,68.20
2022-11-20T03:34:19.385Z,68.20
2022-11-20T03:36:46.361Z,68.40
2022-11-20T03:39:13.158Z,68.30
2022-11-20T03:41:41.894Z,68.20
2022-11-20T03:44:11.966Z,68.20
2022-11-20T03:46:39.168Z,68.20
2022-11-20T03:49:06.512Z,68.30
2022-11-20T03:51:35.632Z,68.50
2022-11-20T03:54:06.365Z,68.50
2022-11-20T03:56:36.425Z,68.40
2022-11-20T03:59:04.122Z,68.50
2022-11-20T04:01:34.266Z,68.80
2022-11-20T04:04:01.378Z,68.70
2022-11-20T04:06:31.756Z,68.90
2022-11-20T04:08:59.387Z,68.80
2022-11-20T04:11:29.385Z,68.90
2022-11-20T04:13:59.638Z,68.80
2022-11-20T04:16:29.600Z,68.70
2022-11-20T04:18:58.525Z,68.90
2022-11-20T04:21:25.768Z,68.80
2022-11-20T04:23:53.890Z,68.90
2022-11-20T04:26:21.842Z,68.90
2022-11-20T04:28:48.856Z,68.80
2022-11-20T04:31:19.504Z,69.10
2022-11-20T04:33:46.900Z,69.10
2022-11-20T04:36:17.806Z,68.80
2022-11-20T04:38:44.857Z,68.90
2022-11-20T04:41:17.340Z,68.90
2022-11-20T04:43:51.780Z,68.90
2022-11-20T04:46:19.676Z,68.90
2022-11-20T04:48:47.090Z,69.00
2022-11-20T04:51:14.226Z,68.60
2022-11-20T04:53:41.219Z,68.60
2022-11-20T04:56:11.270Z,68.80
2022-11-20T04:58:38.780Z,68.60
2022-11-20T05:01:06.879Z,68.40
2022-11-20T05:03:36.338Z,68.20
2022-11-20T05:06:07.302Z,67.90
2022-11-20T05:08:34.919Z,67.90
2022-11-20T05:11:13.421Z,68.20
2022-11-20T05:13:40.412Z,67.80
2022-11-20T05:16:16.964Z,68.00
2022-11-20T05:18:44.531Z,67.80
2022-11-20T05:21:12.487Z,67.70
2022-11-20T05:23:40.488Z,67.60
2022-11-20T05:26:13.151Z,66.40
2022-11-20T05:28:40.473Z,66.60
2022-11-20T05:31:10.963Z,66.60
2022-11-20T05:33:41.110Z,66.90
2022-11-20T05:36:08.524Z,66.80
2022-11-20T05:38:35.301Z,67.00
2022-11-20T05:41:13.962Z,67.00
2022-11-20T05:43:42.263Z,66.80
2022-11-20T05:46:11.317Z,66.60
2022-11-20T05:48:39.358Z,66.60
2022-11-20T05:51:08.631Z,66.50
2022-11-20T05:53:36.771Z,66.80
2022-11-20T05:56:09.300Z,67.00
2022-11-20T05:58:36.210Z,66.60
2022-11-20T06:01:23.214Z,66.70
2022-11-20T06:03:52.333Z,66.80
2022-11-20T06:06:20.509Z,66.70
2022-11-20T06:08:48.456Z,66.80
2022-11-20T06:11:16.709Z,66.80
2022-11-20T06:13:43.953Z,66.60
2022-11-20T06:16:12.567Z,66.00
2022-11-20T06:18:40.151Z,66.50
2022-11-20T06:21:16.070Z,66.60
2022-11-20T06:23:43.742Z,66.40
2022-11-20T06:26:13.610Z,66.80
2022-11-20T06:28:40.864Z,66.70
2022-11-20T06:31:09.099Z,66.90
2022-11-20T06:33:36.195Z,67.00
2022-11-20T06:36:10.154Z,67.10
2022-11-20T06:38:38.653Z,67.00
2022-11-20T06:41:06.994Z,67.00
2022-11-20T06:43:33.850Z,67.20
2022-11-20T06:46:00.870Z,67.20
2022-11-20T06:48:28.773Z,67.10
2022-11-20T06:50:56.898Z,67.00
2022-11-20T06:53:24.597Z,67.30
2022-11-20T06:55:52.345Z,67.00
2022-11-20T06:58:19.528Z,67.30
2022-11-20T07:00:47.421Z,66.90
2022-11-20T07:03:14.715Z,67.20
2022-11-20T07:05:41.830Z,67.20
2022-11-20T07:08:09.569Z,67.20
2022-11-20T07:10:36.719Z,67.20
2022-11-20T07:13:04.041Z,67.30
2022-11-20T07:15:31.177Z,67.30
2022-11-20T07:18:01.004Z,67.10
2022-11-20T07:20:27.898Z,66.70
2022-11-20T07:22:56.677Z,66.60
2022-11-20T07:25:24.544Z,66.60
2022-11-20T07:27:52.059Z,66.90
2022-11-20T07:30:19.425Z,66.60
2022-11-20T07:32:52.566Z,66.30
2022-11-20T07:35:19.917Z,66.40
2022-11-20T07:37:46.862Z,66.40
2022-11-20T07:40:14.708Z,66.50
2022-11-20T07:42:52.024Z,66.60
2022-11-20T07:45:20.871Z,67.00
2022-11-20T07:47:48.063Z,67.30
2022-11-20T07:50:15.172Z,66.60
2022-11-20T07:52:42.023Z,67.40
2022-11-20T07:55:09.866Z,66.10
2022-11-20T07:57:36.768Z,64.90
2022-11-20T08:00:06.833Z,64.40
2022-11-20T08:02:33.631Z,63.40
2022-11-20T08:05:00.393Z,62.30
2022-11-20T08:07:27.358Z,60.50
2022-11-20T08:09:54.215Z,58.90
2022-11-20T08:12:40.361Z,58.30
2022-11-20T08:15:12.863Z,56.90
2022-11-20T08:17:40.349Z,55.10
2022-11-20T08:20:08.556Z,53.90
2022-11-20T08:22:35.456Z,52.50
2022-11-20T08:25:02.645Z,51.30
2022-11-20T08:27:29.673Z,50.40
2022-11-20T08:29:56.492Z,48.90
2022-11-20T08:32:23.356Z,48.10
2022-11-20T08:34:50.531Z,47.40
2022-11-20T08:37:17.298Z,46.80
2022-11-20T08:39:44.186Z,46.40
2022-11-20T08:42:12.336Z,45.10
2022-11-20T08:44:39.108Z,44.10
2022-11-20T08:47:05.935Z,43.30
2022-11-20T08:49:32.701Z,43.00
2022-11-20T08:51:59.476Z,43.00
2022-11-20T08:54:26.337Z,43.60
2022-11-20T08:56:53.448Z,44.00
2022-11-20T08:59:43.364Z,44.20
2022-11-20T09:02:07.281Z,45.00
2022-11-20T09:04:34.109Z,46.00
2022-11-20T09:07:01.478Z,46.50
2022-11-20T09:09:28.471Z,47.40
2022-11-20T09:11:56.229Z,48.00
2022-11-20T09:14:25.797Z,49.00
2022-11-20T09:16:52.590Z,49.30
2022-11-20T09:19:36.118Z,50.80
2022-11-20T09:22:03.581Z,51.20
2022-11-20T09:24:30.957Z,51.20
2022-11-20T09:26:57.829Z,51.20
2022-11-20T09:29:24.675Z,52.00
2022-11-20T09:31:51.462Z,52.10
2022-11-20T09:34:18.270Z,53.10
2022-11-20T09:36:46.091Z,52.70
2022-11-20T09:39:12.886Z,52.70
2022-11-20T09:42:08.712Z,52.70
2022-11-20T09:45:09.806Z,52.70
2022-11-20T09:47:42.748Z,53.10
2022-11-20T09:50:32.563Z,52.70
2022-11-20T09:53:41.957Z,52.80
2022-11-20T09:56:15.071Z,53.30
2022-11-20T09:58:49.804Z,53.20
2022-11-20T10:01:22.320Z,53.20
2022-11-20T10:04:20.768Z,52.90
2022-11-20T10:07:30.241Z,53.30
2022-11-20T10:09:54.662Z,53.90
2022-11-20T10:12:32.405Z,53.50
2022-11-20T10:15:36.294Z,53.50
2022-11-20T10:18:32.649Z,53.70
2022-11-20T10:21:21.961Z,53.30
2022-11-20T10:23:54.714Z,54.00
2022-11-20T10:26:21.568Z,53.10
2022-11-20T10:29:09.224Z,52.90
2022-11-20T10:31:47.778Z,53.40
2022-11-20T10:34:32.688Z,53.50
2022-11-20T10:37:13.028Z,52.80
2022-11-20T10:39:43.016Z,52.40
2022-11-20T10:42:22.324Z,53.20
2022-11-20T10:45:06.787Z,52.80
2022-11-20T10:47:34.362Z,53.00
2022-11-20T10:50:10.771Z,52.90
2022-11-20T10:52:43.718Z,53.20
2022-11-20T10:55:49.263Z,52.60
2022-11-20T10:58:38.269Z,52.50
2022-11-20T11:01:19.905Z,53.00
2022-11-20T11:03:47.921Z,52.70
2022-11-20T11:06:33.492Z,52.50
2022-11-20T11:09:05.178Z,52.80
2022-11-20T11:11:34.583Z,52.00
2022-11-20T11:14:15.640Z,51.80
2022-11-20T11:16:52.104Z,51.80
2022-11-20T11:19:19.733Z,51.30
2022-11-20T11:22:00.261Z,51.40
2022-11-20T11:24:44.687Z,50.90
2022-11-20T11:27:18.986Z,50.50
2022-11-20T11:29:47.543Z,50.40
2022-11-20T11:32:18.265Z,50.40
2022-11-20T11:34:45.161Z,50.50
2022-11-20T11:37:18.580Z,49.80
2022-11-20T11:39:49.401Z,49.80
2022-11-20T11:42:22.281Z,49.40
2022-11-20T11:45:08.127Z,49.30
2022-11-20T11:47:45.119Z,48.90
2022-11-20T11:50:29.402Z,48.40
2022-11-20T11:53:16.845Z,47.90
2022-11-20T11:56:08.627Z,48.00
2022-11-20T11:58:51.114Z,47.50
2022-11-20T12:01:35.593Z,46.90
2022-11-20T12:04:40.126Z,46.70
2022-11-20T12:07:44.074Z,46.80
2022-11-20T12:10:02.681Z,46.90
2022-11-20T12:12:41.934Z,46.80
2022-11-20T12:15:14.016Z,46.20
2022-11-20T12:17:40.882Z,46.60
2022-11-20T12:20:15.529Z,45.60
2022-11-20T12:22:48.199Z,46.20
2022-11-20T12:25:21.101Z,46.50
2022-11-20T12:28:05.922Z,46.90
2022-11-20T12:30:37.075Z,47.00
2022-11-20T12:33:21.192Z,47.10
2022-11-20T12:35:50.695Z,47.20
2022-11-20T12:38:39.413Z,48.40
2022-11-20T12:41:06.221Z,47.10
2022-11-20T12:44:16.031Z,48.00
2022-11-20T12:46:49.226Z,47.60
2022-11-20T12:49:22.199Z,47.20
2022-11-20T12:51:56.131Z,46.30
2022-11-20T12:54:44.033Z,46.30
2022-11-20T12:57:25.888Z,46.60
2022-11-20T12:59:58.397Z,46.30
2022-11-20T13:02:34.242Z,47.00
2022-11-20T13:05:40.415Z,46.40
2022-11-20T13:08:20.881Z,47.00
2022-11-20T13:11:07.869Z,46.80
2022-11-20T13:13:46.964Z,46.20
2022-11-20T13:16:39.440Z,46.50
2022-11-20T13:19:10.728Z,46.80
2022-11-20T13:21:47.497Z,46.90
2022-11-20T13:24:20.672Z,46.10
2022-11-20T13:26:48.281Z,45.80
2022-11-20T13:29:19.518Z,45.70
2022-11-20T13:31:49.852Z,45.20
2022-11-20T13:34:28.500Z,45.20
2022-11-20T13:36:58.655Z,45.70
2022-11-20T13:39:33.853Z,46.40
2022-11-20T13:42:24.481Z,46.20
2022-11-20T13:45:03.717Z,46.50
2022-11-20T13:47:30.808Z,46.90
2022-11-20T13:50:00.479Z,46.50
2022-11-20T13:52:52.611Z,46.90
2022-11-20T13:55:52.450Z,47.50
2022-11-20T13:58:38.037Z,46.50
2022-11-20T14:01:36.713Z,47.00
2022-11-20T14:04:14.108Z,46.60
2022-11-20T14:06:46.587Z,47.10
2022-11-20T14:09:25.871Z,46.80
2022-11-20T14:11:53.014Z,46.70
2022-11-20T14:14:23.039Z,47.00
2022-11-20T14:16:51.370Z,47.10
2022-11-20T14:19:21.224Z,46.90
2022-11-20T14:22:15.075Z,46.70
2022-11-20T14:24:41.864Z,46.00
2022-11-20T14:27:22.511Z,46.80
2022-11-20T14:29:51.256Z,47.20
2022-11-20T14:32:27.684Z,47.00
2022-11-20T14:34:55.512Z,47.60
2022-11-20T14:37:27.216Z,47.10
2022-11-20T14:39:56.663Z,47.80
2022-11-20T14:42:28.413Z,47.70
2022-11-20T14:45:00.278Z,47.50
2022-11-20T14:47:33.748Z,48.00
2022-11-20T14:50:04.639Z,46.90
2022-11-20T14:52:35.605Z,47.70
2022-11-20T14:55:02.580Z,47.30
2022-11-20T14:57:37.022Z,47.40
2022-11-20T15:00:12.886Z,48.30
2022-11-20T15:02:47.041Z,47.70
2022-11-20T15:05:15.220Z,47.30
2022-11-20T15:07:47.009Z,47.60
2022-11-20T15:10:26.889Z,48.30
2022-11-20T15:13:09.886Z,47.80
2022-11-20T15:15:42.148Z,47.60
2022-11-20T15:18:17.603Z,47.60
2022-11-20T15:20:45.477Z,47.40
2022-11-20T15:23:19.996Z,48.20
2022-11-20T15:25:48.855Z,48.60
2022-11-20T15:28:34.326Z,47.90
2022-11-20T15:31:03.317Z,48.90
2022-11-20T15:33:31.350Z,48.00
2022-11-20T15:35:58.499Z,48.50
2022-11-20T15:38:25.581Z,48.60
2022-11-20T15:40:52.433Z,48.50
2022-11-20T15:43:20.142Z,49.00
2022-11-20T15:45:51.761Z,49.20
2022-11-20T15:48:23.268Z,49.30
2022-11-20T15:50:59.341Z,49.80
2022-11-20T15:53:26.209Z,49.60
2022-11-20T15:55:53.073Z,49.70
2022-11-20T15:58:20.163Z,49.60
2022-11-20T16:00:47.050Z,50.00
2022-11-20T16:03:15.318Z,50.40
2022-11-20T16:05:42.655Z,50.30
2022-11-20T16:08:11.804Z,50.00
2022-11-20T16:10:40.732Z,49.90
2022-11-20T16:13:37.823Z,50.60
2022-11-20T16:16:09.062Z,50.20
2022-11-20T16:18:36.233Z,50.60
2022-11-20T16:21:03.814Z,50.40
2022-11-20T16:23:30.633Z,50.50
2022-11-20T16:25:58.456Z,50.60
2022-11-20T16:28:26.316Z,50.60
2022-11-20T16:30:53.108Z,51.40
2022-11-20T16:33:19.936Z,51.20
2022-11-20T16:35:46.794Z,51.00
2022-11-20T16:38:13.882Z,51.30
2022-11-20T16:40:41.504Z,51.70
2022-11-20T16:43:11.184Z,51.90
2022-11-20T16:45:45.196Z,52.00
2022-11-20T16:48:16.887Z,52.10
2022-11-20T16:50:53.703Z,51.90
2022-11-20T16:53:22.231Z,52.30
2022-11-20T16:55:49.445Z,52.30
2022-11-20T16:58:16.487Z,52.90
2022-11-20T17:00:48.341Z,52.10
2022-11-20T17:03:18.663Z,52.40
2022-11-20T17:05:45.526Z,52.70
2022-11-20T17:08:12.486Z,52.60
2022-11-20T17:10:39.277Z,53.10
2022-11-20T17:13:06.203Z,52.70
2022-11-20T17:15:32.990Z,52.60
2022-11-20T17:18:00.051Z,53.10
2022-11-20T17:20:26.902Z,53.50
2022-11-20T17:22:53.954Z,53.60
2022-11-20T17:25:20.788Z,53.70
2022-11-20T17:27:47.659Z,53.80
2022-11-20T17:30:14.822Z,54.00
2022-11-20T17:32:45.743Z,54.20
2022-11-20T17:35:12.667Z,54.60
2022-11-20T17:37:39.495Z,54.70
2022-11-20T17:40:06.801Z,54.40
2022-11-20T17:42:37.126Z,53.80
2022-11-20T17:45:04.862Z,53.40
2022-11-20T17:47:32.573Z,53.30
2022-11-20T17:49:59.369Z,53.00
2022-11-20T17:52:26.790Z,53.30
2022-11-20T17:54:56.471Z,53.30
2022-11-20T17:57:45.113Z,53.50
2022-11-20T18:00:13.287Z,53.00
2022-11-20T18:02:40.776Z,53.10
2022-11-20T18:05:08.874Z,53.70
2022-11-20T18:07:41.466Z,53.80
2022-11-20T18:10:09.768Z,54.00
2022-11-20T18:12:37.943Z,53.80
2022-11-20T18:15:05.007Z,53.90
2022-11-20T18:17:32.028Z,53.30
2022-11-20T18:20:28.535Z,53.70
2022-11-20T18:22:46.190Z,54.10
2022-11-20T18:25:12.974Z,53.30
2022-11-20T18:27:39.825Z,53.60
2022-11-20T18:30:07.255Z,53.50
2022-11-20T18:32:36.055Z,54.00
2022-11-20T18:35:03.374Z,53.70
2022-11-20T18:37:32.885Z,54.00
2022-11-20T18:40:00.653Z,54.70
2022-11-20T18:42:46.180Z,55.20
2022-11-20T18:45:13.005Z,55.20
2022-11-20T18:47:40.269Z,55.50
2022-11-20T18:50:08.671Z,55.60
2022-11-20T18:52:40.909Z,56.30
2022-11-20T18:55:08.759Z,55.90
2022-11-20T18:57:36.144Z,56.20
2022-11-20T19:00:08.871Z,56.00
2022-11-20T19:02:41.696Z,57.20
2022-11-20T19:05:14.448Z,56.60
2022-11-20T19:07:41.901Z,56.60
2022-11-20T19:10:09.142Z,56.60
2022-11-20T19:12:36.013Z,56.10
2022-11-20T19:15:03.232Z,55.80
2022-11-20T19:17:30.048Z,56.10
2022-11-20T19:19:56.934Z,55.70
2022-11-20T19:22:24.462Z,55.30
2022-11-20T19:24:51.726Z,55.40
2022-11-20T19:27:19.444Z,56.30
2022-11-20T19:29:46.291Z,56.50
2022-11-20T19:32:13.095Z,56.80
2022-11-20T19:34:39.985Z,56.40
2022-11-20T19:37:07.092Z,56.40
2022-11-20T19:39:35.829Z,55.60
2022-11-20T19:42:02.946Z,55.30
2022-11-20T19:44:31.029Z,55.20
2022-11-20T19:46:58.702Z,54.70
2022-11-20T19:49:25.971Z,54.50
2022-11-20T19:51:53.262Z,54.40
2022-11-20T19:54:20.331Z,54.10
2022-11-20T19:56:48.982Z,54.10
2022-11-20T19:59:15.824Z,54.70
2022-11-20T20:01:43.640Z,54.40
2022-11-20T20:04:10.571Z,54.40
2022-11-20T20:06:39.089Z,54.90
2022-11-20T20:09:12.306Z,55.20
2022-11-20T20:11:40.008Z,55.60
2022-11-20T20:14:14.675Z,55.70
2022-11-20T20:16:42.831Z,56.10
2022-11-20T20:19:15.235Z,56.10
2022-11-20T20:21:42.492Z,55.80
2022-11-20T20:24:11.449Z,55.40
2022-11-20T20:26:39.531Z,55.70
2022-11-20T20:29:06.678Z,55.60
2022-11-20T20:31:34.942Z,55.70
2022-11-20T20:34:03.480Z,56.30
2022-11-20T20:36:30.353Z,56.20
2022-11-20T20:39:02.891Z,56.80
2022-11-20T20:41:30.529Z,56.80
2022-11-20T20:44:17.158Z,57.10
2022-11-20T20:46:44.813Z,56.90
2022-11-20T20:49:11.783Z,57.20
2022-11-20T20:51:40.608Z,57.10
2022-11-20T20:54:08.805Z,57.00
2022-11-20T20:56:35.701Z,57.20
2022-11-20T20:59:04.543Z,57.00
2022-11-20T21:01:31.528Z,57.40
2022-11-20T21:03:58.464Z,57.00
2022-11-20T21:06:26.018Z,56.90
2022-11-20T21:08:53.146Z,57.00
2022-11-20T21:11:20.887Z,56.90
2022-11-20T21:13:48.663Z,57.20
2022-11-20T21:16:17.673Z,57.30
2022-11-20T21:18:44.807Z,57.30
2022-11-20T21:21:34.795Z,57.20
2022-11-20T21:24:02.254Z,57.40
2022-11-20T21:26:29.095Z,57.00
2022-11-20T21:28:57.609Z,56.90
2022-11-20T21:31:26.803Z,56.70
2022-11-20T21:33:55.935Z,56.80
2022-11-20T21:36:28.795Z,56.80
2022-11-20T21:38:56.700Z,56.50
2022-11-20T21:41:26.515Z,56.60
2022-11-20T21:44:29.196Z,56.70
2022-11-20T21:46:43.809Z,56.80
2022-11-20T21:49:11.116Z,56.90
2022-11-20T21:51:38.178Z,56.80
2022-11-20T21:54:05.306Z,56.90
2022-11-20T21:56:32.214Z,57.00
2022-11-20T21:58:59.091Z,57.30
2022-11-20T22:01:28.944Z,57.40
2022-11-20T22:03:59.140Z,57.10
2022-11-20T22:06:32.410Z,57.40
2022-11-20T22:08:59.813Z,57.50
2022-11-20T22:11:26.899Z,57.50
2022-11-20T22:14:12.530Z,58.00
2022-11-20T22:16:39.619Z,58.10
2022-11-20T22:19:06.821Z,58.00
2022-11-20T22:21:34.744Z,58.10
2022-11-20T22:24:01.649Z,58.20
2022-11-20T22:26:38.794Z,58.20
2022-11-20T22:29:08.544Z,58.40
2022-11-20T22:31:35.949Z,58.20
2022-11-20T22:34:04.641Z,58.60
2022-11-20T22:36:32.525Z,58.60
2022-11-20T22:39:02.131Z,58.70
2022-11-20T22:41:30.327Z,58.80
2022-11-20T22:44:02.317Z,58.90
2022-11-20T22:46:32.155Z,58.80
2022-11-20T22:49:01.725Z,58.80
2022-11-20T22:51:31.714Z,58.90
2022-11-20T22:53:59.660Z,59.30
2022-11-20T22:56:27.953Z,59.20
2022-11-20T22:58:55.408Z,59.30
2022-11-20T23:01:33.612Z,59.30
2022-11-20T23:04:03.708Z,59.40
2022-11-20T23:06:30.963Z,59.60
2022-11-20T23:08:57.810Z,59.70
2022-11-20T23:11:29.728Z,59.60
2022-11-20T23:14:07.973Z,59.50
2022-11-20T23:16:35.663Z,59.30
2022-11-20T23:19:07.912Z,59.10
2022-11-20T23:21:36.281Z,59.50
2022-11-20T23:24:03.748Z,59.80
2022-11-20T23:26:34.263Z,59.70
2022-11-20T23:29:01.947Z,59.70
2022-11-20T23:31:31.214Z,59.90
2022-11-20T23:33:58.938Z,59.80
2022-11-20T23:36:26.636Z,60.10
2022-11-20T23:38:53.794Z,60.00
2022-11-20T23:41:21.034Z,60.00
2022-11-20T23:43:48.256Z,60.10
2022-11-20T23:46:16.979Z,60.10
2022-11-20T23:48:45.432Z,60.20
2022-11-20T23:51:13.216Z,60.00
2022-11-20T23:53:40.211Z,60.40
2022-11-20T23:56:07.217Z,61.00
2022-11-20T23:58:37.156Z,60.50
